DLH2EL EDDF-EDDH
Flight info
| Callsign | DLH2EL |
|---|---|
| Flight time | N/A |
| Altitude | 33000 |
| Route | MARUN3W/25C MARUN Y150 TOLGI DCT SAS/N0442F320 P605 NOLGO NOLGO3P |
| Aircraft | A320/M-SDE3FGHIRWY/LB1 |
Departure
| Time | 2026-05-04 14:00 |
|---|---|
| Airport | Frankfurt Main Airport (EDDF) |
Arrival
| Time | N/A |
|---|---|
| Airport | Hamburg Helmut Schmidt Airport (EDDH) |
| Time | Latitude | Longitude | Altitude | Speed | Heading |
|---|---|---|---|---|---|
| 2026-05-04 13:22 | 50.04392 | 8.56167 | 352 ft | 0 kts | 155° |
| 2026-05-04 13:25 | 50.04393 | 8.56167 | 352 ft | 0 kts | 155° |
| 2026-05-04 13:47 | 50.04393 | 8.56166 | 352 ft | 2 kts | 155° |
| 2026-05-04 13:47 | 50.04403 | 8.56159 | 360 ft | 2 kts | 155° |
| 2026-05-04 13:48 | 50.04429 | 8.56141 | 362 ft | 4 kts | 155° |
| 2026-05-04 13:48 | 50.04454 | 8.56134 | 360 ft | 3 kts | 252° |
| 2026-05-04 13:48 | 50.04455 | 8.56136 | 359 ft | 0 kts | 252° |
| 2026-05-04 13:50 | 50.04451 | 8.56117 | 362 ft | 8 kts | 252° |
| 2026-05-04 13:50 | 50.04406 | 8.56043 | 358 ft | 10 kts | 182° |
| 2026-05-04 13:51 | 50.04322 | 8.56069 | 350 ft | 14 kts | 154° |
| 2026-05-04 13:51 | 50.04257 | 8.56199 | 352 ft | 17 kts | 150° |
| 2026-05-04 13:51 | 50.04188 | 8.56236 | 351 ft | 0 kts | 160° |
| 2026-05-04 13:52 | 50.04141 | 8.56338 | 354 ft | 10 kts | 73° |
| 2026-05-04 13:52 | 50.04167 | 8.56462 | 346 ft | 19 kts | 69° |
| 2026-05-04 13:52 | 50.04217 | 8.56650 | 352 ft | 18 kts | 69° |
| 2026-05-04 13:53 | 50.04257 | 8.56820 | 357 ft | 15 kts | 69° |
| 2026-05-04 13:53 | 50.04289 | 8.56959 | 352 ft | 13 kts | 71° |
| 2026-05-04 13:53 | 50.04326 | 8.57109 | 349 ft | 18 kts | 70° |
| 2026-05-04 13:54 | 50.04407 | 8.57444 | 338 ft | 16 kts | 70° |
| 2026-05-04 13:54 | 50.04443 | 8.57599 | 350 ft | 14 kts | 70° |
| 2026-05-04 13:54 | 50.04494 | 8.57820 | 337 ft | 13 kts | 69° |
| 2026-05-04 13:55 | 50.04549 | 8.58048 | 337 ft | 18 kts | 70° |
| 2026-05-04 13:55 | 50.04637 | 8.58416 | 333 ft | 18 kts | 71° |
| 2026-05-04 13:55 | 50.04619 | 8.58576 | 326 ft | 15 kts | 158° |
| 2026-05-04 13:56 | 50.04587 | 8.58583 | 323 ft | 0 kts | 150° |
| 2026-05-04 13:56 | 50.04585 | 8.58585 | 323 ft | 1 kts | 150° |
| 2026-05-04 13:56 | 50.04577 | 8.58593 | 325 ft | 0 kts | 148° |
| 2026-05-04 13:57 | 50.04576 | 8.58594 | 325 ft | 0 kts | 148° |
| 2026-05-04 13:58 | 50.04569 | 8.58600 | 340 ft | 0 kts | 148° |
| 2026-05-04 13:58 | 50.04550 | 8.58612 | 320 ft | 12 kts | 161° |
| 2026-05-04 13:59 | 50.04477 | 8.58536 | 328 ft | 14 kts | 247° |
| 2026-05-04 13:59 | 50.04442 | 8.58388 | 326 ft | 15 kts | 249° |
| 2026-05-04 13:59 | 50.04152 | 8.57193 | 357 ft | 118 kts | 248° |
| 2026-05-04 14:00 | 50.03809 | 8.55766 | 363 ft | 162 kts | 248° |
| 2026-05-04 14:00 | 50.02933 | 8.52222 | 1421 ft | 177 kts | 249° |
| 2026-05-04 14:00 | 50.02446 | 8.50421 | 2029 ft | 189 kts | 239° |
| 2026-05-04 14:01 | 50.01531 | 8.48893 | 2710 ft | 199 kts | 216° |
| 2026-05-04 14:01 | 50.00247 | 8.48040 | 3417 ft | 206 kts | 194° |
| 2026-05-04 14:01 | 49.97363 | 8.47348 | 4928 ft | 214 kts | 191° |
| 2026-05-04 14:02 | 49.95896 | 8.46966 | 5816 ft | 214 kts | 198° |
| 2026-05-04 14:02 | 49.94395 | 8.46296 | 6316 ft | 236 kts | 198° |
| 2026-05-04 14:02 | 49.92789 | 8.45522 | 7017 ft | 243 kts | 204° |
| 2026-05-04 14:02 | 49.91431 | 8.44003 | 7856 ft | 246 kts | 230° |
| 2026-05-04 14:03 | 49.90682 | 8.41599 | 8665 ft | 254 kts | 257° |
| 2026-05-04 14:03 | 49.90787 | 8.38832 | 9469 ft | 266 kts | 286° |
| 2026-05-04 14:03 | 49.91826 | 8.36410 | 10221 ft | 279 kts | 319° |
| 2026-05-04 14:03 | 49.93551 | 8.34943 | 10942 ft | 291 kts | 335° |
| 2026-05-04 14:04 | 49.97586 | 8.32315 | 11524 ft | 338 kts | 336° |
| 2026-05-04 14:04 | 49.99847 | 8.30867 | 11749 ft | 360 kts | 336° |
| 2026-05-04 14:04 | 50.02247 | 8.29597 | 12318 ft | 370 kts | 346° |
| 2026-05-04 14:05 | 50.07424 | 8.29320 | 12973 ft | 376 kts | 10° |
| 2026-05-04 14:05 | 50.09939 | 8.30409 | 13000 ft | 376 kts | 19° |
| 2026-05-04 14:05 | 50.12415 | 8.31727 | 13001 ft | 376 kts | 19° |
| 2026-05-04 14:06 | 50.14888 | 8.33043 | 12995 ft | 375 kts | 19° |
| 2026-05-04 14:06 | 50.17356 | 8.34344 | 12999 ft | 374 kts | 19° |
| 2026-05-04 14:06 | 50.19823 | 8.35638 | 12996 ft | 374 kts | 19° |
| 2026-05-04 14:06 | 50.22256 | 8.36913 | 12996 ft | 374 kts | 19° |
| 2026-05-04 14:07 | 50.24723 | 8.38203 | 12994 ft | 374 kts | 18° |
| 2026-05-04 14:07 | 50.27189 | 8.39493 | 12995 ft | 374 kts | 19° |
| 2026-05-04 14:07 | 50.29647 | 8.40786 | 12994 ft | 374 kts | 19° |
| 2026-05-04 14:07 | 50.32114 | 8.42112 | 12994 ft | 374 kts | 19° |
| 2026-05-04 14:08 | 50.34572 | 8.43456 | 12992 ft | 373 kts | 19° |
| 2026-05-04 14:08 | 50.37022 | 8.44804 | 12989 ft | 372 kts | 19° |
| 2026-05-04 14:08 | 50.39471 | 8.46152 | 13305 ft | 376 kts | 19° |
| 2026-05-04 14:08 | 50.41945 | 8.47510 | 14077 ft | 378 kts | 19° |
| 2026-05-04 14:09 | 50.47080 | 8.49656 | 15386 ft | 385 kts | 13° |
| 2026-05-04 14:09 | 50.49634 | 8.50992 | 15978 ft | 390 kts | 27° |
| 2026-05-04 14:10 | 50.54271 | 8.55597 | 17194 ft | 398 kts | 33° |
| 2026-05-04 14:10 | 50.56598 | 8.58003 | 17798 ft | 403 kts | 33° |
| 2026-05-04 14:10 | 50.58946 | 8.60442 | 18398 ft | 406 kts | 33° |
| 2026-05-04 14:10 | 50.61314 | 8.62904 | 18913 ft | 410 kts | 33° |
| 2026-05-04 14:11 | 50.63708 | 8.65392 | 19410 ft | 414 kts | 33° |
| 2026-05-04 14:11 | 50.68555 | 8.70433 | 20404 ft | 422 kts | 33° |
| 2026-05-04 14:11 | 50.71024 | 8.72992 | 20914 ft | 426 kts | 33° |
| 2026-05-04 14:12 | 50.73512 | 8.75571 | 21406 ft | 430 kts | 33° |
| 2026-05-04 14:12 | 50.76018 | 8.78176 | 21878 ft | 434 kts | 33° |
| 2026-05-04 14:12 | 50.81104 | 8.83472 | 22819 ft | 441 kts | 33° |
| 2026-05-04 14:13 | 50.83675 | 8.86152 | 23267 ft | 445 kts | 33° |
| 2026-05-04 14:13 | 50.86270 | 8.88865 | 23687 ft | 449 kts | 33° |
| 2026-05-04 14:13 | 50.88882 | 8.91606 | 24086 ft | 452 kts | 33° |
| 2026-05-04 14:13 | 50.91513 | 8.94375 | 24484 ft | 455 kts | 33° |
| 2026-05-04 14:14 | 50.94159 | 8.97163 | 24889 ft | 458 kts | 33° |
| 2026-05-04 14:14 | 50.99495 | 9.02790 | 25674 ft | 463 kts | 33° |
| 2026-05-04 14:14 | 51.02179 | 9.05620 | 26098 ft | 465 kts | 33° |
| 2026-05-04 14:15 | 51.07600 | 9.11352 | 26924 ft | 471 kts | 33° |
| 2026-05-04 14:15 | 51.13088 | 9.17168 | 27671 ft | 477 kts | 33° |
| 2026-05-04 14:16 | 51.18627 | 9.23069 | 28013 ft | 481 kts | 33° |
| 2026-05-04 14:16 | 51.21411 | 9.26040 | 28375 ft | 483 kts | 33° |
| 2026-05-04 14:17 | 51.27078 | 9.31940 | 28954 ft | 489 kts | 27° |
| 2026-05-04 14:17 | 51.30151 | 9.34250 | 29252 ft | 489 kts | 19° |
| 2026-05-04 14:17 | 51.36738 | 9.37038 | 29852 ft | 491 kts | 9° |
| 2026-05-04 14:18 | 51.40026 | 9.38178 | 30231 ft | 491 kts | 9° |
| 2026-05-04 14:18 | 51.46681 | 9.40502 | 30461 ft | 487 kts | 9° |
| 2026-05-04 14:19 | 51.53294 | 9.42821 | 28995 ft | 482 kts | 9° |
| 2026-05-04 14:19 | 51.56545 | 9.43967 | 28340 ft | 477 kts | 9° |
| 2026-05-04 14:19 | 51.59772 | 9.45109 | 27746 ft | 472 kts | 9° |
| 2026-05-04 14:19 | 51.62969 | 9.46238 | 27180 ft | 467 kts | 9° |
| 2026-05-04 14:20 | 51.66145 | 9.47357 | 26934 ft | 465 kts | 9° |
| 2026-05-04 14:20 | 51.69305 | 9.48468 | 26964 ft | 465 kts | 8° |
| 2026-05-04 14:20 | 51.72475 | 9.49583 | 26963 ft | 466 kts | 8° |
| 2026-05-04 14:21 | 51.78771 | 9.51816 | 26957 ft | 466 kts | 9° |
| 2026-05-04 14:21 | 51.81924 | 9.53077 | 26958 ft | 468 kts | 14° |
| 2026-05-04 14:21 | 51.84973 | 9.54988 | 26958 ft | 471 kts | 23° |
| 2026-05-04 14:21 | 51.87900 | 9.57399 | 26958 ft | 472 kts | 25° |
| 2026-05-04 14:22 | 51.90820 | 9.59827 | 26966 ft | 473 kts | 24° |
| 2026-05-04 14:22 | 51.93756 | 9.62263 | 26959 ft | 473 kts | 24° |
| 2026-05-04 14:22 | 51.96655 | 9.64666 | 26962 ft | 473 kts | 24° |
| 2026-05-04 14:22 | 51.99607 | 9.67116 | 26961 ft | 473 kts | 24° |
| 2026-05-04 14:23 | 52.05437 | 9.71967 | 26959 ft | 473 kts | 24° |
| 2026-05-04 14:23 | 52.08413 | 9.74449 | 26958 ft | 473 kts | 24° |
| 2026-05-04 14:23 | 52.11342 | 9.76894 | 26959 ft | 473 kts | 24° |
| 2026-05-04 14:24 | 52.14254 | 9.79328 | 26961 ft | 474 kts | 24° |
| 2026-05-04 14:24 | 52.17156 | 9.81757 | 26962 ft | 474 kts | 24° |
| 2026-05-04 14:24 | 52.20090 | 9.84218 | 26963 ft | 474 kts | 24° |
| 2026-05-04 14:24 | 52.23048 | 9.86568 | 26967 ft | 472 kts | 19° |
| 2026-05-04 14:25 | 52.26133 | 9.88298 | 26965 ft | 467 kts | 10° |
| 2026-05-04 14:25 | 52.32527 | 9.90015 | 26970 ft | 462 kts | 2° |
| 2026-05-04 14:25 | 52.35675 | 9.90689 | 26989 ft | 462 kts | 2° |
| 2026-05-04 14:26 | 52.38877 | 9.91381 | 26970 ft | 462 kts | 2° |
| 2026-05-04 14:26 | 52.42063 | 9.92072 | 26971 ft | 462 kts | 2° |
| 2026-05-04 14:26 | 52.45223 | 9.92759 | 26971 ft | 462 kts | 2° |
| 2026-05-04 14:26 | 52.48419 | 9.93457 | 26973 ft | 462 kts | 2° |
| 2026-05-04 14:27 | 52.51611 | 9.94152 | 26975 ft | 461 kts | 2° |
| 2026-05-04 14:27 | 52.54795 | 9.94845 | 26975 ft | 461 kts | 2° |
| 2026-05-04 14:27 | 52.57975 | 9.95537 | 26975 ft | 462 kts | 2° |
| 2026-05-04 14:27 | 52.61140 | 9.96230 | 26979 ft | 461 kts | 2° |
| 2026-05-04 14:28 | 52.64313 | 9.96926 | 26974 ft | 461 kts | 2° |
| 2026-05-04 14:28 | 52.67487 | 9.97625 | 26975 ft | 461 kts | 2° |
| 2026-05-04 14:28 | 52.70668 | 9.98329 | 26973 ft | 461 kts | 2° |
| 2026-05-04 14:28 | 52.73837 | 9.99029 | 26967 ft | 461 kts | 2° |
| 2026-05-04 14:29 | 52.80194 | 10.00441 | 26971 ft | 461 kts | 2° |
| 2026-05-04 14:29 | 52.86544 | 10.01870 | 26970 ft | 459 kts | 2° |
| 2026-05-04 14:30 | 52.88637 | 10.02342 | 26971 ft | 458 kts | 2° |
| 2026-05-04 14:30 | 52.92856 | 10.03286 | 26975 ft | 458 kts | 2° |
| 2026-05-04 14:30 | 52.99169 | 10.04682 | 26974 ft | 458 kts | 2° |
| 2026-05-04 14:31 | 53.02333 | 10.05383 | 26974 ft | 458 kts | 2° |
| 2026-05-04 14:31 | 53.08612 | 10.06789 | 26372 ft | 452 kts | 2° |
| 2026-05-04 14:32 | 53.14798 | 10.08188 | 25184 ft | 444 kts | 2° |
| 2026-05-04 14:32 | 53.17832 | 10.08877 | 24732 ft | 438 kts | 2° |
| 2026-05-04 14:32 | 53.20803 | 10.09558 | 24594 ft | 423 kts | 2° |
| 2026-05-04 14:32 | 53.23672 | 10.10218 | 24337 ft | 412 kts | 2° |
| 2026-05-04 14:33 | 53.26484 | 10.10859 | 24004 ft | 405 kts | 2° |
| 2026-05-04 14:33 | 53.29266 | 10.11488 | 23681 ft | 398 kts | 2° |
| 2026-05-04 14:33 | 53.31987 | 10.12101 | 23347 ft | 391 kts | 2° |
| 2026-05-04 14:33 | 53.34652 | 10.12701 | 22957 ft | 385 kts | 2° |
| 2026-05-04 14:34 | 53.37295 | 10.13300 | 22583 ft | 380 kts | 2° |
| 2026-05-04 14:34 | 53.39899 | 10.13749 | 22206 ft | 370 kts | 354° |
| 2026-05-04 14:34 | 53.42414 | 10.13511 | 21852 ft | 362 kts | 349° |
| 2026-05-04 14:34 | 53.44901 | 10.13190 | 21500 ft | 358 kts | 349° |
| 2026-05-04 14:35 | 53.47402 | 10.12871 | 21134 ft | 355 kts | 349° |
| 2026-05-04 14:35 | 53.49771 | 10.12567 | 20791 ft | 352 kts | 349° |
| 2026-05-04 14:35 | 53.52245 | 10.12251 | 20435 ft | 349 kts | 349° |
| 2026-05-04 14:35 | 53.54646 | 10.11944 | 20087 ft | 346 kts | 349° |
| 2026-05-04 14:36 | 53.57065 | 10.11968 | 19757 ft | 351 kts | 6° |
| 2026-05-04 14:36 | 53.59336 | 10.13668 | 19410 ft | 361 kts | 35° |
| 2026-05-04 14:36 | 53.61091 | 10.16615 | 19079 ft | 362 kts | 45° |
| 2026-05-04 14:36 | 53.62753 | 10.19871 | 18741 ft | 360 kts | 48° |
| 2026-05-04 14:37 | 53.64296 | 10.23066 | 18421 ft | 359 kts | 49° |
| 2026-05-04 14:37 | 53.65866 | 10.26368 | 18056 ft | 357 kts | 49° |
| 2026-05-04 14:37 | 53.67424 | 10.29627 | 17675 ft | 355 kts | 48° |
| 2026-05-04 14:37 | 53.68976 | 10.32835 | 17304 ft | 353 kts | 48° |
| 2026-05-04 14:38 | 53.70539 | 10.36030 | 16934 ft | 351 kts | 47° |
| 2026-05-04 14:38 | 53.72097 | 10.39191 | 16569 ft | 350 kts | 47° |
| 2026-05-04 14:38 | 53.73652 | 10.42339 | 16213 ft | 349 kts | 47° |
| 2026-05-04 14:38 | 53.75200 | 10.45475 | 15862 ft | 348 kts | 47° |
| 2026-05-04 14:39 | 53.76744 | 10.48613 | 15499 ft | 346 kts | 48° |
| 2026-05-04 14:39 | 53.78273 | 10.51726 | 15161 ft | 345 kts | 48° |
| 2026-05-04 14:39 | 53.79811 | 10.54861 | 14836 ft | 344 kts | 48° |
| 2026-05-04 14:40 | 53.82425 | 10.59800 | 14253 ft | 326 kts | 31° |
| 2026-05-04 14:40 | 53.84443 | 10.61188 | 13922 ft | 301 kts | 359° |
| 2026-05-04 14:40 | 53.86376 | 10.60680 | 13569 ft | 275 kts | 328° |
| 2026-05-04 14:40 | 53.87925 | 10.58970 | 13195 ft | 261 kts | 315° |
| 2026-05-04 14:41 | 53.89111 | 10.56753 | 12774 ft | 246 kts | 290° |
| 2026-05-04 14:41 | 53.89394 | 10.54015 | 12362 ft | 238 kts | 262° |
| 2026-05-04 14:41 | 53.87851 | 10.49171 | 11550 ft | 240 kts | 232° |
| 2026-05-04 14:42 | 53.85726 | 10.44855 | 10756 ft | 239 kts | 232° |
| 2026-05-04 14:42 | 53.84653 | 10.42687 | 10361 ft | 238 kts | 232° |
| 2026-05-04 14:42 | 53.83599 | 10.40554 | 9987 ft | 236 kts | 232° |
| 2026-05-04 14:43 | 53.82557 | 10.38444 | 9563 ft | 231 kts | 232° |
| 2026-05-04 14:43 | 53.81543 | 10.36387 | 9141 ft | 228 kts | 232° |
| 2026-05-04 14:43 | 53.80551 | 10.34375 | 8725 ft | 224 kts | 232° |
| 2026-05-04 14:43 | 53.79565 | 10.32374 | 8282 ft | 222 kts | 232° |
| 2026-05-04 14:44 | 53.78293 | 10.29796 | 7764 ft | 217 kts | 232° |
| 2026-05-04 14:44 | 53.77353 | 10.27897 | 7375 ft | 206 kts | 232° |
| 2026-05-04 14:44 | 53.76461 | 10.26099 | 7000 ft | 192 kts | 232° |
| 2026-05-04 14:44 | 53.75627 | 10.24419 | 6608 ft | 181 kts | 232° |
| 2026-05-04 14:45 | 53.74845 | 10.22839 | 6209 ft | 172 kts | 232° |
| 2026-05-04 14:45 | 53.74092 | 10.21319 | 5819 ft | 163 kts | 233° |
| 2026-05-04 14:45 | 53.73390 | 10.19902 | 5431 ft | 156 kts | 233° |
| 2026-05-04 14:45 | 53.72697 | 10.18495 | 5017 ft | 152 kts | 233° |
| 2026-05-04 14:46 | 53.72039 | 10.17151 | 4607 ft | 149 kts | 234° |
| 2026-05-04 14:46 | 53.71383 | 10.15807 | 4194 ft | 148 kts | 233° |
| 2026-05-04 14:46 | 53.70740 | 10.14493 | 3800 ft | 147 kts | 233° |
| 2026-05-04 14:46 | 53.70086 | 10.13159 | 3398 ft | 146 kts | 233° |
| 2026-05-04 14:47 | 53.69437 | 10.11835 | 2987 ft | 147 kts | 233° |
| 2026-05-04 14:47 | 53.69000 | 10.10944 | 2627 ft | 151 kts | 233° |
| 2026-05-04 14:47 | 53.68085 | 10.09079 | 1872 ft | 159 kts | 233° |